createdAt,value
2016-11-05T00:02:30.636Z,0
2016-11-05T00:05:47.854Z,0
2016-11-05T00:09:04.479Z,0
2016-11-05T00:12:21.252Z,0
2016-11-05T00:15:38.009Z,0
2016-11-05T00:18:55.183Z,0
2016-11-05T00:22:11.828Z,0
2016-11-05T00:25:28.251Z,0
2016-11-05T00:28:45.598Z,0
2016-11-05T00:32:02.063Z,0
2016-11-05T00:35:19.268Z,0
2016-11-05T00:38:36.023Z,0
2016-11-05T00:41:53.739Z,0
2016-11-05T00:45:11.122Z,0
2016-11-05T00:48:28.915Z,0
2016-11-05T00:51:45.315Z,0
2016-11-05T00:55:02.788Z,0
2016-11-05T00:58:19.313Z,0
2016-11-05T01:01:36.882Z,0
2016-11-05T01:04:53.278Z,0
2016-11-05T01:08:10.029Z,0
2016-11-05T01:11:27.616Z,0
2016-11-05T01:14:44.711Z,0
2016-11-05T01:18:01.450Z,0
2016-11-05T01:21:18.185Z,0
2016-11-05T01:24:34.859Z,0
2016-11-05T01:27:51.911Z,0
2016-11-05T01:31:08.637Z,0
2016-11-05T01:34:25.753Z,0
2016-11-05T01:37:42.863Z,0
2016-11-05T01:41:00.295Z,0
2016-11-05T01:44:16.760Z,0
2016-11-05T01:47:34.197Z,0
2016-11-05T01:50:51.299Z,0
2016-11-05T01:54:08.439Z,0
2016-11-05T01:57:24.851Z,0
2016-11-05T02:00:42.057Z,0
2016-11-05T02:03:58.873Z,0
2016-11-05T02:07:15.676Z,0
2016-11-05T02:10:32.431Z,0
2016-11-05T02:13:49.531Z,0
2016-11-05T02:17:06.587Z,0
2016-11-05T02:20:23.624Z,0
2016-11-05T02:23:39.936Z,0
2016-11-05T02:26:56.782Z,0
2016-11-05T02:30:13.551Z,0
2016-11-05T02:33:30.478Z,0
2016-11-05T02:36:47.254Z,0
2016-11-05T02:40:04.345Z,0
2016-11-05T02:43:20.882Z,0
2016-11-05T02:46:38.549Z,0
2016-11-05T02:49:55.129Z,0
2016-11-05T02:53:12.502Z,0
2016-11-05T02:56:28.844Z,0
2016-11-05T02:59:46.618Z,0
2016-11-05T03:03:03.142Z,0
2016-11-05T03:06:20.468Z,0
2016-11-05T03:09:37.190Z,0
2016-11-05T03:12:54.581Z,0
2016-11-05T03:16:11.139Z,0
2016-11-05T03:19:27.981Z,0
2016-11-05T03:22:44.587Z,0
2016-11-05T03:26:01.566Z,0
2016-11-05T03:30:02.142Z,0
2016-11-05T03:33:19.068Z,0
2016-11-05T03:36:35.761Z,0
2016-11-05T03:39:52.690Z,0
2016-11-05T03:43:09.072Z,0
2016-11-05T03:46:25.723Z,0
2016-11-05T03:49:42.778Z,0
2016-11-05T03:52:59.731Z,0
2016-11-05T03:56:16.036Z,0
2016-11-05T03:59:33.381Z,0
2016-11-05T04:02:49.684Z,0
2016-11-05T04:06:06.769Z,0
2016-11-05T04:09:23.490Z,0
2016-11-05T04:12:40.218Z,0
2016-11-05T04:15:56.879Z,0
2016-11-05T04:19:13.742Z,0
2016-11-05T04:22:31.071Z,0
2016-11-05T04:25:47.954Z,0
2016-11-05T04:29:04.746Z,0
2016-11-05T04:32:21.819Z,0
2016-11-05T04:35:38.795Z,0
2016-11-05T04:38:55.721Z,0
2016-11-05T04:42:12.360Z,0
2016-11-05T04:45:29.308Z,0
2016-11-05T04:48:46.243Z,0
2016-11-05T04:52:02.760Z,0
2016-11-05T04:55:19.474Z,0
2016-11-05T04:58:36.063Z,0
2016-11-05T05:01:52.722Z,0
2016-11-05T05:10:24.678Z,0
2016-11-05T05:13:41.542Z,0
2016-11-05T05:16:58.941Z,0
2016-11-05T05:20:15.646Z,0
2016-11-05T05:23:33.124Z,0
2016-11-05T05:26:50.432Z,0
2016-11-05T05:30:07.735Z,0
2016-11-05T05:33:24.592Z,0
2016-11-05T05:36:41.868Z,0
2016-11-05T05:39:58.616Z,0
2016-11-05T05:43:16.414Z,0
2016-11-05T05:46:33.400Z,0
2016-11-05T05:49:50.357Z,0
2016-11-05T05:53:07.612Z,0
2016-11-05T05:56:24.611Z,0
2016-11-05T05:59:41.368Z,0
2016-11-05T06:02:58.479Z,0
2016-11-05T06:06:15.416Z,0
2016-11-05T06:09:32.640Z,0
2016-11-05T06:12:49.886Z,0
2016-11-05T06:16:07.664Z,0
2016-11-05T06:19:24.907Z,0
2016-11-05T06:22:42.320Z,0
2016-11-05T06:25:59.590Z,0
2016-11-05T06:29:17.160Z,0
2016-11-05T06:32:34.060Z,0
2016-11-05T06:35:51.708Z,0
2016-11-05T06:39:09.012Z,0
2016-11-05T06:42:26.309Z,0
2016-11-05T06:45:42.997Z,10
2016-11-05T06:49:00.521Z,10
2016-11-05T06:52:17.299Z,10
2016-11-05T06:55:34.413Z,10
2016-11-05T06:58:51.403Z,10
2016-11-05T07:02:08.672Z,10
2016-11-05T07:05:25.541Z,10
2016-11-05T07:08:42.678Z,10
2016-11-05T07:16:30.637Z,15
2016-11-05T07:20:02.025Z,25
2016-11-05T07:23:18.792Z,20
2016-11-05T07:26:36.042Z,20
2016-11-05T07:29:53.475Z,20
2016-11-05T07:33:10.515Z,20
2016-11-05T07:36:27.725Z,20
2016-11-05T07:39:45.179Z,15
2016-11-05T07:43:02.955Z,15
2016-11-05T07:46:20.347Z,15
2016-11-05T07:49:38.004Z,15
2016-11-05T07:52:55.986Z,15
2016-11-05T07:56:17.712Z,15
2016-11-05T07:59:36.503Z,15
2016-11-05T08:02:54.094Z,15
2016-11-05T08:06:10.870Z,15
2016-11-05T08:09:28.521Z,15
2016-11-05T08:12:45.807Z,15
2016-11-05T08:16:02.900Z,20
2016-11-05T08:19:19.837Z,20
2016-11-05T08:23:21.447Z,20
2016-11-05T08:26:38.690Z,20
2016-11-05T08:29:55.823Z,25
2016-11-05T08:33:12.395Z,30
2016-11-05T08:36:29.744Z,35
2016-11-05T08:39:46.425Z,35
2016-11-05T08:43:03.676Z,30
2016-11-05T08:46:20.925Z,30
2016-11-05T08:49:38.189Z,25
2016-11-05T08:52:55.191Z,30
2016-11-05T08:56:12.064Z,30
2016-11-05T08:59:28.978Z,35
2016-11-05T09:02:46.222Z,35
2016-11-05T09:06:18.101Z,25
2016-11-05T09:09:49.737Z,25
2016-11-05T09:13:07.302Z,25
2016-11-05T09:16:23.893Z,25
2016-11-05T09:24:11.269Z,25
2016-11-05T09:27:28.643Z,25
2016-11-05T09:31:03.339Z,25
2016-11-05T09:34:20.340Z,25
2016-11-05T09:38:24.144Z,25
2016-11-05T09:45:45.612Z,25
2016-11-05T09:49:03.575Z,25
2016-11-05T09:59:38.593Z,35
2016-11-05T10:03:04.337Z,35
2016-11-05T10:06:24.531Z,35
2016-11-05T10:10:00.484Z,30
2016-11-05T10:13:37.350Z,30
2016-11-05T10:16:55.261Z,30
2016-11-05T10:20:14.376Z,25
2016-11-05T10:23:33.196Z,25
2016-11-05T10:26:53.567Z,30
2016-11-05T10:30:11.436Z,30
2016-11-05T10:33:32.898Z,25
2016-11-05T10:36:50.519Z,30
2016-11-05T10:40:10.045Z,35
2016-11-05T10:43:29.405Z,30
2016-11-05T10:46:52.102Z,35
2016-11-05T10:54:01.591Z,30
2016-11-05T10:57:19.602Z,25
2016-11-05T11:00:54.307Z,25
2016-11-05T11:04:30.940Z,30
2016-11-05T11:07:49.964Z,40
2016-11-05T11:11:06.327Z,40
2016-11-05T11:14:23.408Z,40
2016-11-05T11:22:25.648Z,50
2016-11-05T11:25:57.278Z,75
2016-11-05T11:29:15.228Z,75
2016-11-05T11:32:32.648Z,70
2016-11-05T11:35:49.742Z,65
2016-11-05T11:39:06.695Z,60
2016-11-05T11:42:23.667Z,65
2016-11-05T11:45:40.995Z,55
2016-11-05T11:48:58.229Z,60
2016-11-05T11:52:29.503Z,55
2016-11-05T12:00:03.519Z,75
2016-11-05T12:03:36.110Z,70
2016-11-05T12:07:08.106Z,80
2016-11-05T12:10:26.031Z,80
2016-11-05T12:13:59.866Z,80
2016-11-05T12:22:22.999Z,50
2016-11-05T12:30:35.893Z,45
2016-11-05T12:34:45.779Z,45
2016-11-05T12:43:16.463Z,55
2016-11-05T12:47:42.319Z,70
2016-11-05T12:51:44.315Z,60
2016-11-05T13:01:36.995Z,55
2016-11-05T13:20:34.553Z,50
2016-11-05T13:23:51.421Z,70
2016-11-05T13:27:08.625Z,75
2016-11-05T13:30:25.473Z,75
2016-11-05T13:33:42.587Z,70
2016-11-05T13:36:59.844Z,55
2016-11-05T13:40:17.108Z,50
2016-11-05T13:43:34.064Z,50
2016-11-05T13:47:06.278Z,55
2016-11-05T13:50:23.004Z,70
2016-11-05T13:54:09.304Z,60
2016-11-05T13:58:25.242Z,60
2016-11-05T14:05:43.500Z,65
2016-11-05T14:09:15.532Z,55
2016-11-05T14:12:33.946Z,35
2016-11-05T14:20:51.064Z,50
2016-11-05T14:24:07.788Z,50
2016-11-05T14:27:25.175Z,45
2016-11-05T14:30:42.356Z,35
2016-11-05T14:33:59.510Z,30
2016-11-05T14:37:16.963Z,30
2016-11-05T14:40:49.198Z,25
2016-11-05T14:44:50.191Z,20
2016-11-05T14:48:22.451Z,25
2016-11-05T14:51:53.889Z,25
2016-11-05T14:55:27.701Z,30
2016-11-05T14:59:00.881Z,30
2016-11-05T15:02:18.310Z,25
2016-11-05T15:05:35.539Z,15
2016-11-05T15:08:52.347Z,10
2016-11-05T15:12:53.414Z,10
2016-11-05T15:17:23.676Z,5
2016-11-05T15:24:44.588Z,5
2016-11-05T15:28:16.426Z,10
2016-11-05T15:32:03.042Z,5
2016-11-05T15:35:19.954Z,5
2016-11-05T15:38:37.236Z,5
2016-11-05T15:41:54.232Z,5
2016-11-05T15:45:11.636Z,0
2016-11-05T15:48:28.513Z,0
2016-11-05T15:51:45.225Z,0
2016-11-05T15:55:02.517Z,0
2016-11-05T15:58:19.146Z,0
2016-11-05T16:01:36.019Z,0
2016-11-05T16:04:53.632Z,0
2016-11-05T16:08:10.522Z,0
2016-11-05T16:11:27.469Z,0
2016-11-05T16:14:44.373Z,0
2016-11-05T16:18:01.253Z,0
2016-11-05T16:21:18.045Z,0
2016-11-05T16:24:35.316Z,0
2016-11-05T16:27:52.415Z,0
2016-11-05T16:31:09.407Z,0
2016-11-05T16:34:26.915Z,0
2016-11-05T16:37:43.476Z,0
2016-11-05T16:41:00.768Z,0
2016-11-05T16:44:17.422Z,0
2016-11-05T16:47:35.006Z,0
2016-11-05T16:50:51.452Z,0
2016-11-05T16:54:08.800Z,0
2016-11-05T16:57:25.257Z,0
2016-11-05T17:00:42.255Z,0
2016-11-05T17:03:58.619Z,0
2016-11-05T17:07:30.590Z,0
2016-11-05T17:10:47.507Z,0
2016-11-05T17:14:04.412Z,0
2016-11-05T17:17:21.983Z,0
2016-11-05T17:20:38.976Z,0
2016-11-05T17:23:55.485Z,0
2016-11-05T17:27:12.658Z,0
2016-11-05T17:30:29.132Z,0
2016-11-05T17:33:46.330Z,0
2016-11-05T17:37:02.879Z,0
2016-11-05T17:40:19.718Z,0
2016-11-05T17:43:36.773Z,0
2016-11-05T17:46:54.022Z,0
2016-11-05T17:50:10.595Z,0
2016-11-05T17:53:27.350Z,0
2016-11-05T17:56:45.495Z,0
2016-11-05T18:00:02.081Z,0
2016-11-05T18:03:19.407Z,0
2016-11-05T18:06:36.314Z,0
2016-11-05T18:09:52.818Z,0
2016-11-05T18:13:09.997Z,0
2016-11-05T18:16:29.904Z,0
2016-11-05T18:19:46.819Z,0
2016-11-05T18:23:03.778Z,0
2016-11-05T18:26:27.260Z,0
2016-11-05T18:29:45.739Z,0
2016-11-05T18:33:09.690Z,0
2016-11-05T18:36:38.867Z,0
2016-11-05T18:40:04.719Z,0
2016-11-05T18:43:26.829Z,0
2016-11-05T18:46:44.947Z,0
2016-11-05T18:50:02.618Z,0
2016-11-05T18:53:19.665Z,0
2016-11-05T18:56:36.488Z,0
2016-11-05T18:59:53.782Z,0
2016-11-05T19:03:10.745Z,0
2016-11-05T19:06:28.310Z,0
2016-11-05T19:09:45.110Z,0
2016-11-05T19:13:02.180Z,0
2016-11-05T19:16:19.123Z,0
2016-11-05T19:20:49.839Z,0
2016-11-05T19:24:07.030Z,0
2016-11-05T19:27:24.039Z,0
2016-11-05T19:30:40.863Z,0
2016-11-05T19:33:58.087Z,0
2016-11-05T19:37:14.892Z,0
2016-11-05T19:40:31.802Z,0
2016-11-05T19:43:49.123Z,0
2016-11-05T19:47:06.445Z,0
2016-11-05T19:50:37.688Z,0
2016-11-05T19:53:54.680Z,0
2016-11-05T19:57:11.465Z,0
2016-11-05T20:00:28.736Z,0
2016-11-05T20:03:45.567Z,0
2016-11-05T20:07:02.770Z,0
2016-11-05T20:10:34.704Z,0
2016-11-05T20:13:51.918Z,0
2016-11-05T20:17:08.799Z,0
2016-11-05T20:20:26.499Z,0
2016-11-05T20:23:43.470Z,0
2016-11-05T20:27:00.764Z,0
2016-11-05T21:07:33.927Z,0
2016-11-05T21:11:53.160Z,0
2016-11-05T21:13:08.704Z,0
2016-11-05T21:14:52.369Z,0
2016-11-05T21:16:06.975Z,0
2016-11-05T21:17:50.993Z,0
2016-11-05T21:19:20.180Z,0
2016-11-05T21:20:35.921Z,0
2016-11-05T21:21:51.461Z,0
2016-11-05T21:23:06.270Z,0
2016-11-05T21:24:21.208Z,0
2016-11-05T21:25:35.546Z,0
2016-11-05T21:26:58.564Z,0
2016-11-05T21:28:17.823Z,0
2016-11-05T21:29:35.257Z,0
2016-11-05T21:30:51.875Z,0
2016-11-05T21:32:06.581Z,0
2016-11-05T21:33:21.995Z,0
2016-11-05T21:34:47.993Z,0
2016-11-05T21:36:10.353Z,0
2016-11-05T21:37:27.171Z,0
2016-11-05T21:39:15.897Z,0
2016-11-05T21:40:37.246Z,0
2016-11-05T21:41:52.535Z,0
2016-11-05T21:43:07.219Z,0
2016-11-05T21:44:22.961Z,0
2016-11-05T21:45:37.603Z,0
2016-11-05T21:47:07.641Z,0
2016-11-05T21:48:22.675Z,0
2016-11-05T21:49:41.516Z,0
2016-11-05T21:51:00.120Z,0
2016-11-05T21:52:18.499Z,0
2016-11-05T21:53:34.826Z,0
2016-11-05T21:54:50.035Z,0
2016-11-05T21:56:04.508Z,0
2016-11-05T21:57:18.973Z,0
2016-11-05T21:58:33.610Z,0
2016-11-05T21:59:48.218Z,0
2016-11-05T22:01:02.776Z,0
2016-11-05T22:02:17.715Z,0
2016-11-05T22:03:31.966Z,0
2016-11-05T22:04:46.488Z,0
2016-11-05T22:06:01.253Z,0
2016-11-05T22:07:16.227Z,0
2016-11-05T22:08:30.467Z,0
2016-11-05T22:09:44.904Z,0
2016-11-05T22:10:59.921Z,0
2016-11-05T22:12:14.515Z,0
2016-11-05T22:13:29.143Z,0
2016-11-05T22:14:43.654Z,0
2016-11-05T22:15:58.144Z,0
2016-11-05T22:17:12.542Z,0
2016-11-05T22:18:26.832Z,0
2016-11-05T22:19:41.513Z,0
2016-11-05T22:20:56.429Z,0
2016-11-05T22:22:11.378Z,0
2016-11-05T22:23:25.626Z,0
2016-11-05T22:24:40.294Z,0
2016-11-05T22:25:55.050Z,0
2016-11-05T22:27:09.335Z,0
2016-11-05T22:28:23.416Z,0
2016-11-05T22:29:37.784Z,0
2016-11-05T22:31:07.367Z,0
2016-11-05T22:32:24.699Z,0
2016-11-05T22:33:39.192Z,0
2016-11-05T22:34:53.573Z,0
2016-11-05T22:36:08.307Z,0
2016-11-05T22:37:22.913Z,0
2016-11-05T22:38:37.654Z,0
2016-11-05T22:39:52.354Z,0
2016-11-05T22:41:06.501Z,0
2016-11-05T22:42:21.056Z,0
2016-11-05T22:43:36.081Z,0
2016-11-05T22:44:50.843Z,0
2016-11-05T22:46:05.223Z,0
2016-11-05T22:47:19.968Z,0
2016-11-05T22:48:34.633Z,0
2016-11-05T22:49:50.014Z,0
2016-11-05T22:51:06.232Z,0
2016-11-05T22:52:21.023Z,0
2016-11-05T22:53:50.300Z,0
2016-11-05T22:55:05.605Z,0
2016-11-05T22:56:20.597Z,0
2016-11-05T22:59:22.501Z,0
2016-11-05T23:00:46.544Z,0
2016-11-05T23:02:02.169Z,0
2016-11-05T23:03:17.056Z,0
2016-11-05T23:04:31.529Z,0
2016-11-05T23:05:47.020Z,0
2016-11-05T23:07:02.307Z,0
2016-11-05T23:08:16.727Z,0
2016-11-05T23:09:31.517Z,0
2016-11-05T23:10:46.392Z,0
2016-11-05T23:12:01.577Z,0
2016-11-05T23:13:16.034Z,0
2016-11-05T23:14:30.788Z,0
2016-11-05T23:15:45.680Z,0
2016-11-05T23:17:00.393Z,0
2016-11-05T23:18:14.939Z,0
2016-11-05T23:19:29.801Z,0
2016-11-05T23:20:44.447Z,0
2016-11-05T23:21:59.080Z,0
2016-11-05T23:23:13.768Z,0
2016-11-05T23:24:29.266Z,0
2016-11-05T23:25:43.417Z,0
2016-11-05T23:26:58.243Z,0
2016-11-05T23:28:13.858Z,0
2016-11-05T23:29:28.589Z,0
2016-11-05T23:30:43.415Z,0
2016-11-05T23:31:58.323Z,0
2016-11-05T23:33:14.843Z,0
2016-11-05T23:34:29.419Z,0
2016-11-05T23:35:43.819Z,0
2016-11-05T23:36:58.778Z,0
2016-11-05T23:38:13.282Z,0
2016-11-05T23:39:28.417Z,0
2016-11-05T23:40:43.407Z,0
2016-11-05T23:41:58.616Z,0
2016-11-05T23:43:28.450Z,0
2016-11-05T23:44:43.489Z,0
2016-11-05T23:45:58.388Z,0
2016-11-05T23:47:13.996Z,0
2016-11-05T23:48:29.785Z,0
2016-11-05T23:49:44.259Z,0
2016-11-05T23:50:59.866Z,0
2016-11-05T23:52:18.665Z,0
2016-11-05T23:53:33.829Z,0
2016-11-05T23:55:03.394Z,0
2016-11-05T23:56:19.001Z,0
2016-11-05T23:57:55.679Z,0
2016-11-05T23:59:12.036Z,0
